createdAt,value
2022-10-07T00:00:10.985Z,10.15
2022-10-07T00:02:43.422Z,10.17
2022-10-07T00:05:17.002Z,10.19
2022-10-07T00:07:49.328Z,10.19
2022-10-07T00:10:21.586Z,10.18
2022-10-07T00:12:53.981Z,10.23
2022-10-07T00:15:26.698Z,10.21
2022-10-07T00:17:59.001Z,10.16
2022-10-07T00:20:36.932Z,10.12
2022-10-07T00:23:09.229Z,10.15
2022-10-07T00:25:41.548Z,10.13
2022-10-07T00:28:13.905Z,10.12
2022-10-07T00:30:46.239Z,10.14
2022-10-07T00:33:18.585Z,10.12
2022-10-07T00:35:51.625Z,10.08
2022-10-07T00:38:23.947Z,10.01
2022-10-07T00:40:56.288Z,10.02
2022-10-07T00:43:30.567Z,9.97
2022-10-07T00:46:07.696Z,9.97
2022-10-07T00:48:41.037Z,9.97
2022-10-07T00:51:16.416Z,9.96
2022-10-07T00:53:52.251Z,9.94
2022-10-07T00:56:27.117Z,9.89
2022-10-07T00:58:59.630Z,9.90
2022-10-07T01:01:34.724Z,9.87
2022-10-07T01:04:11.986Z,9.83
2022-10-07T01:06:45.114Z,9.86
2022-10-07T01:09:20.759Z,9.83
2022-10-07T01:11:59.862Z,9.86
2022-10-07T01:14:45.835Z,9.85
2022-10-07T01:17:22.980Z,9.80
2022-10-07T01:20:28.998Z,9.72
2022-10-07T01:23:19.104Z,9.69
2022-10-07T01:26:03.652Z,9.67
2022-10-07T01:28:41.610Z,9.66
2022-10-07T01:31:17.455Z,9.60
2022-10-07T01:33:54.371Z,9.62
2022-10-07T01:36:28.686Z,9.55
2022-10-07T01:39:07.695Z,9.51
2022-10-07T01:41:40.955Z,9.53
2022-10-07T01:44:14.071Z,9.50
2022-10-07T01:46:47.113Z,9.49
2022-10-07T01:49:19.434Z,9.50
2022-10-07T01:52:08.146Z,9.46
2022-10-07T01:54:50.490Z,9.42
2022-10-07T01:57:32.202Z,9.41
2022-10-07T02:00:11.047Z,9.35
2022-10-07T02:03:17.090Z,9.30
2022-10-07T02:05:59.950Z,9.30
2022-10-07T02:08:36.975Z,9.25
2022-10-07T02:11:15.406Z,9.18
2022-10-07T02:14:00.299Z,9.16
2022-10-07T02:16:41.764Z,9.06
2022-10-07T02:19:17.987Z,9.11
2022-10-07T02:21:53.015Z,9.11
2022-10-07T02:24:29.315Z,9.09
2022-10-07T02:27:07.851Z,9.05
2022-10-07T02:29:42.711Z,9.07
2022-10-07T02:32:20.220Z,9.03
2022-10-07T02:35:18.926Z,9.05
2022-10-07T02:37:55.550Z,9.03
2022-10-07T02:40:33.704Z,8.90
2022-10-07T02:43:11.602Z,8.96
2022-10-07T02:45:47.992Z,8.97
2022-10-07T02:48:26.423Z,8.92
2022-10-07T02:51:03.631Z,8.86
2022-10-07T02:53:38.113Z,8.89
2022-10-07T02:56:11.792Z,8.96
2022-10-07T02:58:46.027Z,8.83
2022-10-07T03:01:24.840Z,8.83
2022-10-07T03:03:58.418Z,8.76
2022-10-07T03:06:30.854Z,8.81
2022-10-07T03:09:06.316Z,8.72
2022-10-07T03:11:39.238Z,8.67
2022-10-07T03:14:12.094Z,8.71
2022-10-07T03:16:44.551Z,8.71
2022-10-07T03:19:17.667Z,8.68
2022-10-07T03:22:01.693Z,8.66
2022-10-07T03:24:36.249Z,8.68
2022-10-07T03:27:08.710Z,8.67
2022-10-07T03:29:43.241Z,8.69
2022-10-07T03:32:16.304Z,8.76
2022-10-07T03:34:49.303Z,8.70
2022-10-07T03:37:21.877Z,8.68
2022-10-07T03:39:54.285Z,8.68
2022-10-07T03:42:27.188Z,8.55
2022-10-07T03:44:59.518Z,8.50
2022-10-07T03:47:32.516Z,8.50
2022-10-07T03:50:06.529Z,8.51
2022-10-07T03:52:38.839Z,8.54
2022-10-07T03:55:11.326Z,8.49
2022-10-07T03:57:57.071Z,8.36
2022-10-07T04:00:32.394Z,8.27
2022-10-07T04:03:06.973Z,8.23
2022-10-07T04:05:40.063Z,8.24
2022-10-07T04:08:17.230Z,8.28
2022-10-07T04:10:50.009Z,8.22
2022-10-07T04:13:22.503Z,8.17
2022-10-07T04:15:55.820Z,8.18
2022-10-07T04:18:28.994Z,8.12
2022-10-07T04:21:02.087Z,8.11
2022-10-07T04:23:37.363Z,8.12
2022-10-07T04:26:11.276Z,8.00
2022-10-07T04:28:48.406Z,8.03
2022-10-07T04:31:24.380Z,8.00
2022-10-07T04:34:10.034Z,8.06
2022-10-07T04:36:47.123Z,8.01
2022-10-07T04:39:33.213Z,7.99
2022-10-07T04:42:29.547Z,8.09
2022-10-07T04:45:09.416Z,8.08
2022-10-07T04:47:44.951Z,8.09
2022-10-07T04:50:17.927Z,8.06
2022-10-07T04:52:54.128Z,8.12
2022-10-07T04:55:27.515Z,8.23
2022-10-07T04:58:00.223Z,8.26
2022-10-07T05:00:33.054Z,8.28
2022-10-07T05:03:05.460Z,8.26
2022-10-07T05:05:41.423Z,8.26
2022-10-07T05:08:15.963Z,8.31
2022-10-07T05:10:48.414Z,8.39
2022-10-07T05:13:21.749Z,8.33
2022-10-07T05:15:56.145Z,8.45
2022-10-07T05:18:30.478Z,8.54
2022-10-07T05:21:08.054Z,8.62
2022-10-07T05:23:45.182Z,8.63
2022-10-07T05:26:22.045Z,8.64
2022-10-07T05:29:00.118Z,8.62
2022-10-07T05:31:40.632Z,8.68
2022-10-07T05:34:13.375Z,8.68
2022-10-07T05:36:46.314Z,8.77
2022-10-07T05:39:19.582Z,8.73
2022-10-07T05:41:58.300Z,8.80
2022-10-07T05:44:37.108Z,8.91
2022-10-07T05:47:10.899Z,8.91
2022-10-07T05:49:43.346Z,8.98
2022-10-07T05:52:15.993Z,9.05
2022-10-07T05:54:51.175Z,9.14
2022-10-07T05:57:24.101Z,9.19
2022-10-07T05:59:58.190Z,9.30
2022-10-07T06:02:30.921Z,9.43
2022-10-07T06:05:04.251Z,9.50
2022-10-07T06:07:37.086Z,9.55
2022-10-07T06:10:29.282Z,9.63
2022-10-07T06:13:07.394Z,9.72
2022-10-07T06:15:40.239Z,9.82
2022-10-07T06:18:13.367Z,9.87
2022-10-07T06:20:53.364Z,9.99
2022-10-07T06:23:26.587Z,10.05
2022-10-07T06:26:01.647Z,10.12
2022-10-07T06:28:36.810Z,10.21
2022-10-07T06:31:11.365Z,10.31
2022-10-07T06:33:43.862Z,10.42
2022-10-07T06:36:16.851Z,10.45
2022-10-07T06:38:53.070Z,10.58
2022-10-07T06:41:30.409Z,10.68
2022-10-07T06:44:27.571Z,10.71
2022-10-07T06:47:01.874Z,10.70
2022-10-07T06:49:34.197Z,10.80
2022-10-07T06:52:06.638Z,10.92
2022-10-07T06:54:39.011Z,11.14
2022-10-07T06:57:40.360Z,11.30
2022-10-07T07:00:05.442Z,11.47
2022-10-07T07:02:38.872Z,11.64
2022-10-07T07:05:14.947Z,11.74
2022-10-07T07:07:49.348Z,11.97
2022-10-07T07:10:22.318Z,12.04
2022-10-07T07:12:57.841Z,12.21
2022-10-07T07:15:30.686Z,12.30
2022-10-07T07:18:05.109Z,12.29
2022-10-07T07:20:38.674Z,12.27
2022-10-07T07:23:10.974Z,12.43
2022-10-07T07:25:45.154Z,12.59
2022-10-07T07:28:18.743Z,12.73
2022-10-07T07:30:51.215Z,12.96
2022-10-07T07:33:23.993Z,13.08
2022-10-07T07:35:56.857Z,13.15
2022-10-07T07:38:29.236Z,13.29
2022-10-07T07:41:04.535Z,13.33
2022-10-07T07:43:37.515Z,13.58
2022-10-07T07:46:11.905Z,13.74
2022-10-07T07:48:44.882Z,13.78
2022-10-07T07:51:18.310Z,13.74
2022-10-07T07:53:51.590Z,13.83
2022-10-07T07:56:25.094Z,13.92
2022-10-07T07:58:58.331Z,14.07
2022-10-07T08:01:31.213Z,14.25
2022-10-07T08:04:04.127Z,14.47
2022-10-07T08:06:39.672Z,14.52
2022-10-07T08:09:12.466Z,14.52
2022-10-07T08:11:46.690Z,14.59
2022-10-07T08:14:22.790Z,14.54
2022-10-07T08:16:58.470Z,14.80
2022-10-07T08:19:31.582Z,15.01
2022-10-07T08:22:06.432Z,15.20
2022-10-07T08:24:39.926Z,15.44
2022-10-07T08:27:12.482Z,15.46
2022-10-07T08:29:46.026Z,15.59
2022-10-07T08:32:18.443Z,15.70
2022-10-07T08:34:50.765Z,15.69
2022-10-07T08:37:23.104Z,15.79
2022-10-07T08:39:55.387Z,15.97
2022-10-07T08:42:34.241Z,15.83
2022-10-07T08:45:15.593Z,16.13
2022-10-07T08:47:50.857Z,16.31
2022-10-07T08:50:30.258Z,16.31
2022-10-07T08:53:07.753Z,16.36
2022-10-07T08:55:44.700Z,16.50
2022-10-07T08:58:39.448Z,16.32
2022-10-07T09:01:23.727Z,16.31
2022-10-07T09:04:05.961Z,16.54
2022-10-07T09:06:41.874Z,16.43
2022-10-07T09:09:19.432Z,16.54
2022-10-07T09:11:55.155Z,16.37
2022-10-07T09:14:29.144Z,16.58
2022-10-07T09:17:10.038Z,16.58
2022-10-07T09:19:46.547Z,16.75
2022-10-07T09:22:22.159Z,16.69
2022-10-07T09:25:09.025Z,16.73
2022-10-07T09:27:44.116Z,16.96
2022-10-07T09:30:17.255Z,17.05
2022-10-07T09:32:53.628Z,17.41
2022-10-07T09:35:30.860Z,17.38
2022-10-07T09:38:08.564Z,17.39
2022-10-07T09:40:58.498Z,17.62
2022-10-07T09:43:32.192Z,17.48
2022-10-07T09:46:04.732Z,17.74
2022-10-07T09:48:52.071Z,18.02
2022-10-07T09:51:26.401Z,18.22
2022-10-07T09:54:02.075Z,18.28
2022-10-07T09:56:40.594Z,18.15
2022-10-07T09:59:21.993Z,18.15
2022-10-07T10:01:56.475Z,17.89
2022-10-07T10:04:32.773Z,17.79
2022-10-07T10:07:15.713Z,17.91
2022-10-07T10:09:49.611Z,18.09
2022-10-07T10:12:24.115Z,18.13
2022-10-07T10:14:59.428Z,18.09
2022-10-07T10:17:38.753Z,18.14
2022-10-07T10:20:35.367Z,18.12
2022-10-07T10:23:26.416Z,18.19
2022-10-07T10:26:28.192Z,18.15
2022-10-07T10:29:17.107Z,18.54
2022-10-07T10:32:09.098Z,18.51
2022-10-07T10:34:50.129Z,18.60
2022-10-07T10:37:27.719Z,18.82
2022-10-07T10:40:07.423Z,18.63
2022-10-07T10:42:48.399Z,18.88
2022-10-07T10:45:34.517Z,19.08
2022-10-07T10:48:23.911Z,19.07
2022-10-07T10:51:05.875Z,19.05
2022-10-07T10:53:50.696Z,19.12
2022-10-07T10:56:36.123Z,19.34
2022-10-07T10:59:26.209Z,19.42
2022-10-07T11:02:17.587Z,19.35
2022-10-07T11:04:54.628Z,19.17
2022-10-07T11:07:32.740Z,19.28
2022-10-07T11:10:17.862Z,19.31
2022-10-07T11:12:56.162Z,19.67
2022-10-07T11:15:33.069Z,19.56
2022-10-07T11:18:11.594Z,19.65
2022-10-07T11:20:47.491Z,19.47
2022-10-07T11:23:25.051Z,19.56
2022-10-07T11:26:02.751Z,19.40
2022-10-07T11:28:39.546Z,19.48
2022-10-07T11:31:21.027Z,19.44
2022-10-07T11:34:06.656Z,19.56
2022-10-07T11:36:45.167Z,20.14
2022-10-07T11:39:17.770Z,20.53
2022-10-07T11:41:56.262Z,20.55
2022-10-07T11:44:32.733Z,20.57
2022-10-07T11:47:10.503Z,20.61
2022-10-07T11:49:55.195Z,20.60
2022-10-07T11:52:30.599Z,20.47
2022-10-07T11:55:06.514Z,20.17
2022-10-07T11:57:42.560Z,20.35
2022-10-07T12:00:24.717Z,20.37
2022-10-07T12:02:57.200Z,19.86
2022-10-07T12:06:11.438Z,19.61
2022-10-07T12:08:44.710Z,19.58
2022-10-07T12:11:46.153Z,19.69
2022-10-07T12:14:40.183Z,19.67
2022-10-07T12:17:22.491Z,19.68
2022-10-07T12:20:32.048Z,19.57
2022-10-07T12:23:35.735Z,19.29
2022-10-07T12:26:47.916Z,19.23
2022-10-07T12:29:39.532Z,19.24
2022-10-07T12:32:41.893Z,19.56
2022-10-07T12:35:40.451Z,19.51
2022-10-07T12:38:16.905Z,19.66
2022-10-07T12:40:59.379Z,19.64
2022-10-07T12:43:45.546Z,19.57
2022-10-07T12:46:21.224Z,19.78
2022-10-07T12:49:00.392Z,19.67
2022-10-07T12:51:38.031Z,19.82
2022-10-07T12:54:17.558Z,20.01
2022-10-07T12:56:50.291Z,20.11
2022-10-07T12:59:53.239Z,19.74
2022-10-07T13:03:22.435Z,19.48
2022-10-07T13:06:28.855Z,19.81
2022-10-07T13:09:26.629Z,19.12
2022-10-07T13:12:16.987Z,19.28
2022-10-07T13:14:59.418Z,19.38
2022-10-07T13:17:41.042Z,19.38
2022-10-07T13:20:32.154Z,19.19
2022-10-07T13:23:11.619Z,19.04
2022-10-07T13:25:45.269Z,18.89
2022-10-07T13:28:21.623Z,18.49
2022-10-07T13:30:54.061Z,18.58
2022-10-07T13:33:29.566Z,18.84
2022-10-07T13:36:20.125Z,18.92
2022-10-07T13:39:10.395Z,19.10
2022-10-07T13:41:45.077Z,19.14
2022-10-07T13:44:19.722Z,19.31
2022-10-07T13:46:57.248Z,19.22
2022-10-07T13:49:34.619Z,19.30
2022-10-07T13:52:18.343Z,19.30
2022-10-07T13:54:52.471Z,19.04
2022-10-07T13:57:28.502Z,18.91
2022-10-07T14:00:01.065Z,18.86
2022-10-07T14:02:39.244Z,18.97
2022-10-07T14:05:19.961Z,19.05
2022-10-07T14:07:53.831Z,18.94
2022-10-07T14:10:29.421Z,19.04
2022-10-07T14:13:09.011Z,18.96
2022-10-07T14:15:47.336Z,18.75
2022-10-07T14:18:19.858Z,18.67
2022-10-07T14:20:54.460Z,18.40
2022-10-07T14:23:30.381Z,18.47
2022-10-07T14:26:05.579Z,18.43
2022-10-07T14:28:39.464Z,18.43
2022-10-07T14:31:37.123Z,18.48
2022-10-07T14:34:31.462Z,18.51
2022-10-07T14:37:05.502Z,18.19
2022-10-07T14:39:39.354Z,18.10
2022-10-07T14:42:15.337Z,17.96
2022-10-07T14:44:48.794Z,17.98
2022-10-07T14:47:23.764Z,17.84
2022-10-07T14:49:58.741Z,17.98
2022-10-07T14:52:35.253Z,17.40
2022-10-07T14:55:12.919Z,17.67
2022-10-07T14:57:47.426Z,17.63
2022-10-07T15:00:22.091Z,17.45
2022-10-07T15:02:54.392Z,17.46
2022-10-07T15:05:26.829Z,17.36
2022-10-07T15:07:59.528Z,17.33
2022-10-07T15:10:32.670Z,17.21
2022-10-07T15:13:08.611Z,16.97
2022-10-07T15:15:45.343Z,16.71
2022-10-07T15:18:17.688Z,16.52
2022-10-07T15:20:55.715Z,16.40
2022-10-07T15:23:29.436Z,16.35
2022-10-07T15:26:01.808Z,16.10
2022-10-07T15:28:34.865Z,15.95
2022-10-07T15:31:09.434Z,15.92
2022-10-07T15:33:41.979Z,15.77
2022-10-07T15:36:14.999Z,15.55
2022-10-07T15:38:47.294Z,15.40
2022-10-07T15:41:33.167Z,15.26
2022-10-07T15:44:12.011Z,15.24
2022-10-07T15:46:45.525Z,15.11
2022-10-07T15:49:17.836Z,15.06
2022-10-07T15:51:50.575Z,14.96
2022-10-07T15:54:24.380Z,15.02
2022-10-07T15:56:56.710Z,15.08
2022-10-07T15:59:29.680Z,14.86
2022-10-07T16:02:03.024Z,14.82
2022-10-07T16:04:35.328Z,14.86
2022-10-07T16:07:10.551Z,14.80
2022-10-07T16:09:42.863Z,14.73
2022-10-07T16:12:15.205Z,14.81
2022-10-07T16:14:48.386Z,14.89
2022-10-07T16:17:21.263Z,14.77
2022-10-07T16:19:53.543Z,14.62
2022-10-07T16:22:25.862Z,14.46
2022-10-07T16:24:58.177Z,14.59
2022-10-07T16:27:45.271Z,14.50
2022-10-07T16:30:36.433Z,14.41
2022-10-07T16:33:08.798Z,14.43
2022-10-07T16:35:41.563Z,14.38
2022-10-07T16:38:14.513Z,14.19
2022-10-07T16:40:53.960Z,14.06
2022-10-07T16:43:26.452Z,14.06
2022-10-07T16:46:01.950Z,13.82
2022-10-07T16:48:38.577Z,13.94
2022-10-07T16:51:11.830Z,13.83
2022-10-07T16:53:45.980Z,13.73
2022-10-07T16:56:20.240Z,13.79
2022-10-07T16:58:55.421Z,13.60
2022-10-07T17:01:29.472Z,13.54
2022-10-07T17:04:01.914Z,13.47
2022-10-07T17:06:34.687Z,13.34
2022-10-07T17:09:07.072Z,13.25
2022-10-07T17:11:40.031Z,13.20
2022-10-07T17:14:15.577Z,13.19
2022-10-07T17:16:49.919Z,13.32
2022-10-07T17:19:24.103Z,13.31
2022-10-07T17:21:58.532Z,13.25
2022-10-07T17:24:30.935Z,13.35
2022-10-07T17:27:03.419Z,13.33
2022-10-07T17:29:37.707Z,13.41
2022-10-07T17:32:10.722Z,13.23
2022-10-07T17:34:45.464Z,13.27
2022-10-07T17:37:17.990Z,13.40
2022-10-07T17:39:50.599Z,13.43
2022-10-07T17:42:23.020Z,13.50
2022-10-07T17:44:55.339Z,13.57
2022-10-07T17:47:28.365Z,13.69
2022-10-07T17:50:00.688Z,13.75
2022-10-07T17:52:32.970Z,13.82
2022-10-07T17:55:06.768Z,13.82
2022-10-07T17:57:39.470Z,13.88
2022-10-07T18:00:12.621Z,13.86
2022-10-07T18:02:49.484Z,13.80
2022-10-07T18:05:21.833Z,13.80
2022-10-07T18:07:54.255Z,13.89
2022-10-07T18:10:26.680Z,13.89
2022-10-07T18:13:19.119Z,13.80
2022-10-07T18:15:57.400Z,13.69
2022-10-07T18:18:31.105Z,13.69
2022-10-07T18:21:04.264Z,13.68
2022-10-07T18:23:37.651Z,13.65
2022-10-07T18:26:12.786Z,13.52
2022-10-07T18:28:46.000Z,13.41
2022-10-07T18:31:18.888Z,13.29
2022-10-07T18:33:51.934Z,13.12
2022-10-07T18:36:24.347Z,13.03
2022-10-07T18:38:57.107Z,12.92
2022-10-07T18:41:29.577Z,12.86
2022-10-07T18:44:01.894Z,12.89
2022-10-07T18:46:34.257Z,12.71
2022-10-07T18:49:08.662Z,12.59
2022-10-07T18:51:41.230Z,12.44
2022-10-07T18:54:13.763Z,12.27
2022-10-07T18:56:46.395Z,12.13
2022-10-07T18:59:19.570Z,11.94
2022-10-07T19:01:52.008Z,11.87
2022-10-07T19:04:25.218Z,11.88
2022-10-07T19:06:57.595Z,11.86
2022-10-07T19:09:32.875Z,11.91
2022-10-07T19:12:25.990Z,11.91
2022-10-07T19:14:57.972Z,11.97
2022-10-07T19:17:31.713Z,12.01
2022-10-07T19:20:05.436Z,12.03
2022-10-07T19:22:37.767Z,12.17
2022-10-07T19:25:28.291Z,12.18
2022-10-07T19:28:00.791Z,12.05
2022-10-07T19:30:33.175Z,11.97
2022-10-07T19:33:05.560Z,11.89
2022-10-07T19:35:38.882Z,11.92
2022-10-07T19:38:11.728Z,11.93
2022-10-07T19:40:44.403Z,11.91
2022-10-07T19:43:16.966Z,11.85
2022-10-07T19:45:50.547Z,11.82
2022-10-07T19:48:22.928Z,11.81
2022-10-07T19:50:59.786Z,11.79
2022-10-07T19:53:33.434Z,11.86
2022-10-07T19:56:11.991Z,11.96
2022-10-07T19:58:47.091Z,11.95
2022-10-07T20:01:21.443Z,12.09
2022-10-07T20:03:56.690Z,12.22
2022-10-07T20:06:29.879Z,12.29
2022-10-07T20:09:03.530Z,12.27
2022-10-07T20:11:35.941Z,12.28
2022-10-07T20:14:09.350Z,12.08
2022-10-07T20:16:42.310Z,12.00
2022-10-07T20:19:17.850Z,11.99
2022-10-07T20:21:50.813Z,12.02
2022-10-07T20:24:23.140Z,12.05
2022-10-07T20:26:55.440Z,11.98
2022-10-07T20:29:27.780Z,11.95
2022-10-07T20:32:00.162Z,11.86
2022-10-07T20:34:32.670Z,11.86
2022-10-07T20:37:05.648Z,11.88
2022-10-07T20:39:58.390Z,11.87
2022-10-07T20:42:32.341Z,11.72
2022-10-07T20:45:05.668Z,11.64
2022-10-07T20:47:38.026Z,11.54
2022-10-07T20:50:11.047Z,11.45
2022-10-07T20:52:44.840Z,11.27
2022-10-07T20:55:17.441Z,11.09
2022-10-07T20:57:50.506Z,11.00
2022-10-07T21:00:22.855Z,10.85
2022-10-07T21:02:55.307Z,10.81
2022-10-07T21:05:28.698Z,10.77
2022-10-07T21:08:01.692Z,10.78
2022-10-07T21:10:34.019Z,10.80
2022-10-07T21:13:06.382Z,10.80
2022-10-07T21:15:38.774Z,10.88
2022-10-07T21:18:11.074Z,11.01
2022-10-07T21:20:55.534Z,11.09
2022-10-07T21:23:30.305Z,11.07
2022-10-07T21:26:03.318Z,11.07
2022-10-07T21:28:39.125Z,11.11
2022-10-07T21:31:16.610Z,11.21
2022-10-07T21:33:50.008Z,10.97
2022-10-07T21:36:23.540Z,11.00
2022-10-07T21:38:58.270Z,10.95
2022-10-07T21:41:33.578Z,10.75
2022-10-07T21:44:09.179Z,10.77
2022-10-07T21:46:43.173Z,10.63
2022-10-07T21:49:16.394Z,10.50
2022-10-07T21:51:48.709Z,10.27
2022-10-07T21:54:21.685Z,10.21
2022-10-07T21:56:54.049Z,10.11
2022-10-07T21:59:26.359Z,10.22
2022-10-07T22:01:58.685Z,10.29
2022-10-07T22:04:31.068Z,10.44
2022-10-07T22:07:21.658Z,10.57
2022-10-07T22:09:54.611Z,10.74
2022-10-07T22:12:26.963Z,10.82
2022-10-07T22:14:59.605Z,10.86
2022-10-07T22:17:34.058Z,10.87
2022-10-07T22:20:08.808Z,10.82
2022-10-07T22:22:41.600Z,10.96
2022-10-07T22:25:14.719Z,10.92
2022-10-07T22:27:48.071Z,10.84
2022-10-07T22:30:20.846Z,10.91
2022-10-07T22:32:53.298Z,10.95
2022-10-07T22:35:29.613Z,10.66
2022-10-07T22:38:02.056Z,10.58
2022-10-07T22:40:37.579Z,10.39
2022-10-07T22:43:09.943Z,10.10
2022-10-07T22:45:42.621Z,9.93
2022-10-07T22:48:15.298Z,9.92
2022-10-07T22:50:47.642Z,9.88
2022-10-07T22:53:20.227Z,9.90
2022-10-07T22:55:53.166Z,9.83
2022-10-07T22:58:25.488Z,9.80
2022-10-07T23:01:02.688Z,10.00
2022-10-07T23:03:37.711Z,10.02
2022-10-07T23:06:12.269Z,10.03
2022-10-07T23:08:46.128Z,10.08
2022-10-07T23:11:21.506Z,10.13
2022-10-07T23:13:54.724Z,10.22
2022-10-07T23:16:29.744Z,10.25
2022-10-07T23:19:02.226Z,10.17
2022-10-07T23:21:34.579Z,10.22
2022-10-07T23:24:09.132Z,10.24
2022-10-07T23:26:43.076Z,10.15
2022-10-07T23:29:15.602Z,10.12
2022-10-07T23:31:48.435Z,10.11
2022-10-07T23:34:20.813Z,10.07
2022-10-07T23:36:54.568Z,9.93
2022-10-07T23:39:27.093Z,9.93
2022-10-07T23:42:00.086Z,9.94
2022-10-07T23:44:32.451Z,10.05
2022-10-07T23:47:05.375Z,10.02
2022-10-07T23:49:37.805Z,10.05
2022-10-07T23:52:10.110Z,10.17
2022-10-07T23:54:42.443Z,10.25
2022-10-07T23:57:15.443Z,10.30
2022-10-07T23:59:47.760Z,10.37
